Pantego, Texas
Current Conditions -  °F | °C
As of 12:53 PM on Thursday 27 Nov 2014 (Local Time) from KGKY Reporting Station
Clear Clear  
Wind Chill: 13°   Ceiling: Unl
Heat Index: 13°   Visibility: 10mi
Dew Point: -8°   Wind: 3mph
Humidity: 23%   Direction: 360°N
Pressure: 30.48"   Gusts: NA
Location:  32.6916°N, 97.1334°W
Report Text: KGKY 271853Z 36003KT 10SM CLR 13/M08 A3048 RMK AO2 SLP319 T01331078
Loading
Personal Weather Stations






























Interactive Weather Map New forecast layout! Learn more

10-Day Weather Forecast

Advertisements
Track Severe Weather on mobile